sensor_id;sensor_type;location;lat;lon;timestamp;pressure;altitude;pressure_sealevel;temperature;humidity
14966;BME280;7577;45.226;5.798;2023-07-29T00:01:17;98789.24;;;28.56;47.62
14966;BME280;7577;45.226;5.798;2023-07-29T00:03:47;98794.03;;;28.56;47.61
14966;BME280;7577;45.226;5.798;2023-07-29T00:06:17;98798.03;;;28.55;47.60
14966;BME280;7577;45.226;5.798;2023-07-29T00:11:26;98792.83;;;28.57;47.56
14966;BME280;7577;45.226;5.798;2023-07-29T00:13:56;98795.23;;;28.55;47.52
14966;BME280;7577;45.226;5.798;2023-07-29T00:16:26;98793.83;;;28.55;47.52
14966;BME280;7577;45.226;5.798;2023-07-29T00:18:56;98792.80;;;28.53;47.47
14966;BME280;7577;45.226;5.798;2023-07-29T00:21:26;98801.41;;;28.54;47.48
14966;BME280;7577;45.226;5.798;2023-07-29T00:26:34;98816.45;;;28.56;47.44
14966;BME280;7577;45.226;5.798;2023-07-29T00:29:04;98819.44;;;28.53;47.44
14966;BME280;7577;45.226;5.798;2023-07-29T00:31:34;98818.84;;;28.54;47.47
14966;BME280;7577;45.226;5.798;2023-07-29T00:34:04;98815.23;;;28.53;47.47
14966;BME280;7577;45.226;5.798;2023-07-29T00:36:34;98815.23;;;28.53;47.47
14966;BME280;7577;45.226;5.798;2023-07-29T00:39:04;98815.61;;;28.52;47.51
14966;BME280;7577;45.226;5.798;2023-07-29T00:41:34;98813.63;;;28.52;47.46
14966;BME280;7577;45.226;5.798;2023-07-29T00:44:04;98814.41;;;28.53;47.43
14966;BME280;7577;45.226;5.798;2023-07-29T00:46:35;98814.20;;;28.52;47.47
14966;BME280;7577;45.226;5.798;2023-07-29T00:49:07;98812.02;;;28.51;47.48
14966;BME280;7577;45.226;5.798;2023-07-29T00:54:15;98810.44;;;28.54;47.44
14966;BME280;7577;45.226;5.798;2023-07-29T00:56:45;98809.80;;;28.51;47.44
14966;BME280;7577;45.226;5.798;2023-07-29T00:59:15;98811.20;;;28.51;47.41
14966;BME280;7577;45.226;5.798;2023-07-29T01:01:45;98816.81;;;28.51;47.38
14966;BME280;7577;45.226;5.798;2023-07-29T01:04:15;98820.81;;;28.50;47.38
14966;BME280;7577;45.226;5.798;2023-07-29T01:06:49;98822.41;;;28.51;47.35
14966;BME280;7577;45.226;5.798;2023-07-29T01:09:28;98820.20;;;28.50;47.33
14966;BME280;7577;45.226;5.798;2023-07-29T01:11:55;98816.81;;;28.51;47.34
14966;BME280;7577;45.226;5.798;2023-07-29T01:14:28;98818.00;;;28.50;47.35
14966;BME280;7577;45.226;5.798;2023-07-29T01:17:02;98817.19;;;28.49;47.35
14966;BME280;7577;45.226;5.798;2023-07-29T01:19:43;98810.77;;;28.49;47.35
14966;BME280;7577;45.226;5.798;2023-07-29T01:22:14;98811.38;;;28.48;47.36
14966;BME280;7577;45.226;5.798;2023-07-29T01:24:46;98816.38;;;28.49;47.37
14966;BME280;7577;45.226;5.798;2023-07-29T01:27:16;98829.39;;;28.47;47.39
14966;BME280;7577;45.226;5.798;2023-07-29T01:29:46;98820.98;;;28.47;47.42
14966;BME280;7577;45.226;5.798;2023-07-29T01:34:58;98812.17;;;28.49;47.38
14966;BME280;7577;45.226;5.798;2023-07-29T01:37:30;98809.98;;;28.48;47.35
14966;BME280;7577;45.226;5.798;2023-07-29T01:40:01;98811.38;;;28.48;47.38
14966;BME280;7577;45.226;5.798;2023-07-29T01:42:33;98811.18;;;28.47;47.38
14966;BME280;7577;45.226;5.798;2023-07-29T01:45:06;98812.96;;;28.46;47.38
14966;BME280;7577;45.226;5.798;2023-07-29T01:47:37;98812.96;;;28.46;47.40
14966;BME280;7577;45.226;5.798;2023-07-29T01:50:10;98818.56;;;28.46;47.38
14966;BME280;7577;45.226;5.798;2023-07-29T01:52:40;98816.96;;;28.45;47.39
14966;BME280;7577;45.226;5.798;2023-07-29T01:55:10;98817.75;;;28.45;47.42
14966;BME280;7577;45.226;5.798;2023-07-29T01:57:40;98816.73;;;28.44;47.41
14966;BME280;7577;45.226;5.798;2023-07-29T02:00:17;98813.34;;;28.44;47.39
14966;BME280;7577;45.226;5.798;2023-07-29T02:02:47;98810.54;;;28.44;47.38
14966;BME280;7577;45.226;5.798;2023-07-29T02:05:17;98806.13;;;28.43;47.39
14966;BME280;7577;45.226;5.798;2023-07-29T02:07:47;98814.73;;;28.44;47.37
14966;BME280;7577;45.226;5.798;2023-07-29T02:10:18;98803.91;;;28.43;47.39
14966;BME280;7577;45.226;5.798;2023-07-29T02:12:48;98804.30;;;28.41;47.37
14966;BME280;7577;45.226;5.798;2023-07-29T02:15:18;98802.89;;;28.41;47.36
14966;BME280;7577;45.226;5.798;2023-07-29T02:20:28;98805.31;;;28.43;47.36
14966;BME280;7577;45.226;5.798;2023-07-29T02:22:58;98812.50;;;28.40;47.34
14966;BME280;7577;45.226;5.798;2023-07-29T02:25:28;98813.90;;;28.40;47.35
14966;BME280;7577;45.226;5.798;2023-07-29T02:27:58;98816.12;;;28.41;47.33
14966;BME280;7577;45.226;5.798;2023-07-29T02:30:29;98812.70;;;28.41;47.33
14966;BME280;7577;45.226;5.798;2023-07-29T02:32:59;98817.52;;;28.41;47.35
14966;BME280;7577;45.226;5.798;2023-07-29T02:35:30;98811.65;;;28.40;47.37
14966;BME280;7577;45.226;5.798;2023-07-29T02:38:00;98811.45;;;28.39;47.35
14966;BME280;7577;45.226;5.798;2023-07-29T02:40:30;98814.45;;;28.40;47.34
14966;BME280;7577;45.226;5.798;2023-07-29T02:43:00;98812.27;;;28.39;47.37
14966;BME280;7577;45.226;5.798;2023-07-29T02:45:30;98813.05;;;28.40;47.34
14966;BME280;7577;45.226;5.798;2023-07-29T02:48:00;98819.27;;;28.39;47.36
14966;BME280;7577;45.226;5.798;2023-07-29T02:50:30;98825.92;;;28.41;47.36
14966;BME280;7577;45.226;5.798;2023-07-29T02:53:00;98821.45;;;28.40;47.35
14966;BME280;7577;45.226;5.798;2023-07-29T02:55:31;98819.27;;;28.39;47.37
14966;BME280;7577;45.226;5.798;2023-07-29T02:58:01;98821.87;;;28.38;47.38
14966;BME280;7577;45.226;5.798;2023-07-29T03:00:33;98820.23;;;28.37;47.34
14966;BME280;7577;45.226;5.798;2023-07-29T03:03:04;98816.64;;;28.37;47.41
14966;BME280;7577;45.226;5.798;2023-07-29T03:05:34;98813.41;;;28.35;47.40
14966;BME280;7577;45.226;5.798;2023-07-29T03:08:05;98816.20;;;28.35;47.37
14966;BME280;7577;45.226;5.798;2023-07-29T03:10:36;98820.78;;;28.33;47.36
14966;BME280;7577;45.226;5.798;2023-07-29T03:13:06;98823.59;;;28.33;47.36
14966;BME280;7577;45.226;5.798;2023-07-29T03:18:15;98824.03;;;28.35;47.31
14966;BME280;7577;45.226;5.798;2023-07-29T03:20:44;98821.40;;;28.33;47.32
14966;BME280;7577;45.226;5.798;2023-07-29T03:23:14;98826.19;;;28.32;47.30
14966;BME280;7577;45.226;5.798;2023-07-29T03:25:47;98820.58;;;28.32;47.32
14966;BME280;7577;45.226;5.798;2023-07-29T03:28:17;98821.98;;;28.32;47.30
14966;BME280;7577;45.226;5.798;2023-07-29T03:30:47;98823.56;;;28.30;47.29
14966;BME280;7577;45.226;5.798;2023-07-29T03:33:17;98819.97;;;28.29;47.32
14966;BME280;7577;45.226;5.798;2023-07-29T03:35:47;98815.91;;;28.27;47.24
14966;BME280;7577;45.226;5.798;2023-07-29T03:38:17;98815.91;;;28.27;47.24
14966;BME280;7577;45.226;5.798;2023-07-29T03:40:47;98822.16;;;28.30;47.27
14966;BME280;7577;45.226;5.798;2023-07-29T03:43:18;98829.78;;;28.29;47.27
14966;BME280;7577;45.226;5.798;2023-07-29T03:45:48;98831.77;;;28.29;47.26
14966;BME280;7577;45.226;5.798;2023-07-29T03:48:18;98827.94;;;28.27;47.27
14966;BME280;7577;45.226;5.798;2023-07-29T03:50:47;98830.95;;;28.28;47.27
14966;BME280;7577;45.226;5.798;2023-07-29T03:53:18;98819.16;;;28.29;47.29
14966;BME280;7577;45.226;5.798;2023-07-29T03:55:48;98826.34;;;28.26;47.29
14966;BME280;7577;45.226;5.798;2023-07-29T03:58:18;98818.52;;;28.26;47.33
14966;BME280;7577;45.226;5.798;2023-07-29T04:00:49;98815.71;;;28.26;47.31
14966;BME280;7577;45.226;5.798;2023-07-29T04:03:19;98817.11;;;28.26;47.33
14966;BME280;7577;45.226;5.798;2023-07-29T04:08:26;98811.13;;;28.27;47.32
14966;BME280;7577;45.226;5.798;2023-07-29T04:10:57;98811.30;;;28.25;47.35
14966;BME280;7577;45.226;5.798;2023-07-29T04:13:27;98811.89;;;28.24;47.35
14966;BME280;7577;45.226;5.798;2023-07-29T04:15:57;98820.30;;;28.24;47.37
14966;BME280;7577;45.226;5.798;2023-07-29T04:21:05;98820.91;;;28.24;47.42
14966;BME280;7577;45.226;5.798;2023-07-29T04:23:35;98822.04;;;28.19;47.46
14966;BME280;7577;45.226;5.798;2023-07-29T04:26:06;98815.24;;;28.20;47.49
14966;BME280;7577;45.226;5.798;2023-07-29T04:28:36;98826.86;;;28.19;47.53
14966;BME280;7577;45.226;5.798;2023-07-29T04:31:06;98817.44;;;28.17;47.53
14966;BME280;7577;45.226;5.798;2023-07-29T04:33:38;98822.66;;;28.19;47.52
14966;BME280;7577;45.226;5.798;2023-07-29T04:36:09;98828.84;;;28.18;47.55
14966;BME280;7577;45.226;5.798;2023-07-29T04:38:39;98826.63;;;28.18;47.56
14966;BME280;7577;45.226;5.798;2023-07-29T04:41:09;98831.06;;;28.19;47.57
14966;BME280;7577;45.226;5.798;2023-07-29T04:43:40;98826.63;;;28.18;47.58
14966;BME280;7577;45.226;5.798;2023-07-29T04:46:09;98827.44;;;28.18;47.59
14966;BME280;7577;45.226;5.798;2023-07-29T04:48:39;98827.81;;;28.17;47.63
14966;BME280;7577;45.226;5.798;2023-07-29T04:51:09;98819.42;;;28.17;47.60
14966;BME280;7577;45.226;5.798;2023-07-29T04:53:39;98821.63;;;28.17;47.60
14966;BME280;7577;45.226;5.798;2023-07-29T04:56:09;98821.25;;;28.19;47.57
14966;BME280;7577;45.226;5.798;2023-07-29T04:58:39;98821.02;;;28.18;47.59
14966;BME280;7577;45.226;5.798;2023-07-29T05:01:10;98826.63;;;28.18;47.61
14966;BME280;7577;45.226;5.798;2023-07-29T05:03:40;98830.24;;;28.18;47.59
14966;BME280;7577;45.226;5.798;2023-07-29T05:06:09;98833.42;;;28.17;47.58
14966;BME280;7577;45.226;5.798;2023-07-29T05:08:40;98824.17;;;28.13;47.66
14966;BME280;7577;45.226;5.798;2023-07-29T05:11:10;98824.17;;;28.13;47.66
14966;BME280;7577;45.226;5.798;2023-07-29T05:13:40;98829.83;;;28.16;47.61
14966;BME280;7577;45.226;5.798;2023-07-29T05:18:50;98833.25;;;28.19;47.60
14966;BME280;7577;45.226;5.798;2023-07-29T05:21:20;98834.65;;;28.19;47.60
14966;BME280;7577;45.226;5.798;2023-07-29T05:23:50;98836.42;;;28.18;47.60
14966;BME280;7577;45.226;5.798;2023-07-29T05:26:20;98843.44;;;28.18;47.61
14966;BME280;7577;45.226;5.798;2023-07-29T05:28:51;98838.44;;;28.17;47.63
14966;BME280;7577;45.226;5.798;2023-07-29T05:31:22;98836.22;;;28.17;47.68
14966;BME280;7577;45.226;5.798;2023-07-29T05:33:52;98840.80;;;28.15;47.61
14966;BME280;7577;45.226;5.798;2023-07-29T05:36:22;98840.80;;;28.15;47.61
14966;BME280;7577;45.226;5.798;2023-07-29T05:38:53;98841.18;;;28.13;47.79
14966;BME280;7577;45.226;5.798;2023-07-29T05:41:22;98839.78;;;28.13;47.72
14966;BME280;7577;45.226;5.798;2023-07-29T05:43:54;98836.40;;;28.14;47.67
14966;BME280;7577;45.226;5.798;2023-07-29T05:46:24;98831.99;;;28.13;47.63
14966;BME280;7577;45.226;5.798;2023-07-29T05:48:55;98829.59;;;28.15;47.61
14966;BME280;7577;45.226;5.798;2023-07-29T05:51:25;98817.95;;;28.10;47.34
14966;BME280;7577;45.226;5.798;2023-07-29T05:53:55;98817.95;;;28.10;47.34
14966;BME280;7577;45.226;5.798;2023-07-29T05:56:25;98828.81;;;28.15;47.44
14966;BME280;7577;45.226;5.798;2023-07-29T05:58:55;98824.61;;;28.15;47.37
14966;BME280;7577;45.226;5.798;2023-07-29T06:01:25;98828.20;;;28.15;47.36
14966;BME280;7577;45.226;5.798;2023-07-29T06:03:55;98829.02;;;28.16;47.32
14966;BME280;7577;45.226;5.798;2023-07-29T06:06:25;98834.62;;;28.16;47.32
14966;BME280;7577;45.226;5.798;2023-07-29T06:08:55;98837.42;;;28.16;47.42
14966;BME280;7577;45.226;5.798;2023-07-29T06:11:27;98833.42;;;28.17;47.33
14966;BME280;7577;45.226;5.798;2023-07-29T06:13:57;98831.44;;;28.17;47.32
14966;BME280;7577;45.226;5.798;2023-07-29T06:19:05;98822.04;;;28.19;47.38
14966;BME280;7577;45.226;5.798;2023-07-29T06:21:37;98825.02;;;28.17;47.39
14966;BME280;7577;45.226;5.798;2023-07-29T06:24:07;98830.83;;;28.18;47.38
14966;BME280;7577;45.226;5.798;2023-07-29T06:26:37;98832.66;;;28.20;47.35
14966;BME280;7577;45.226;5.798;2023-07-29T06:29:08;98821.46;;;28.20;47.32
14966;BME280;7577;45.226;5.798;2023-07-29T06:31:38;98821.87;;;28.22;47.28
14966;BME280;7577;45.226;5.798;2023-07-29T06:34:08;98814.86;;;28.22;47.28
14966;BME280;7577;45.226;5.798;2023-07-29T06:36:37;98809.09;;;28.24;47.26
14966;BME280;7577;45.226;5.798;2023-07-29T06:39:08;98807.11;;;28.25;47.28
14966;BME280;7577;45.226;5.798;2023-07-29T06:41:38;98805.12;;;28.25;47.24
14966;BME280;7577;45.226;5.798;2023-07-29T06:44:07;98808.91;;;28.27;47.23
14966;BME280;7577;45.226;5.798;2023-07-29T06:49:15;98816.16;;;28.28;47.27
14966;BME280;7577;45.226;5.798;2023-07-29T06:51:45;98813.73;;;28.26;47.27
14966;BME280;7577;45.226;5.798;2023-07-29T06:54:17;98818.72;;;28.27;47.29
14966;BME280;7577;45.226;5.798;2023-07-29T06:56:47;98822.77;;;28.29;47.27
14966;BME280;7577;45.226;5.798;2023-07-29T06:59:17;98823.53;;;28.26;47.26
14966;BME280;7577;45.226;5.798;2023-07-29T07:01:47;98825.14;;;28.27;47.23
14966;BME280;7577;45.226;5.798;2023-07-29T07:04:17;98825.95;;;28.28;47.23
14966;BME280;7577;45.226;5.798;2023-07-29T07:06:48;98825.14;;;28.27;47.23
14966;BME280;7577;45.226;5.798;2023-07-29T07:09:19;98829.14;;;28.26;47.24
14966;BME280;7577;45.226;5.798;2023-07-29T07:11:49;98827.73;;;28.26;47.24
14966;BME280;7577;45.226;5.798;2023-07-29T07:14:19;98834.13;;;28.27;47.21
14966;BME280;7577;45.226;5.798;2023-07-29T07:19:27;98829.55;;;28.28;47.20
14966;BME280;7577;45.226;5.798;2023-07-29T07:21:57;98825.14;;;28.27;47.19
14966;BME280;7577;45.226;5.798;2023-07-29T07:24:27;98817.31;;;28.27;47.19
14966;BME280;7577;45.226;5.798;2023-07-29T07:26:58;98825.34;;;28.28;47.20
14966;BME280;7577;45.226;5.798;2023-07-29T07:29:28;98823.16;;;28.28;47.22
14966;BME280;7577;45.226;5.798;2023-07-29T07:31:59;98824.97;;;28.30;47.22
14966;BME280;7577;45.226;5.798;2023-07-29T07:34:29;98830.56;;;28.30;47.21
14966;BME280;7577;45.226;5.798;2023-07-29T07:36:59;98837.57;;;28.30;47.27
14966;BME280;7577;45.226;5.798;2023-07-29T07:39:30;98841.77;;;28.30;47.27
14966;BME280;7577;45.226;5.798;2023-07-29T07:42:00;98839.99;;;28.31;47.26
14966;BME280;7577;45.226;5.798;2023-07-29T07:44:30;98838.80;;;28.32;47.23
14966;BME280;7577;45.226;5.798;2023-07-29T07:47:00;98841.02;;;28.33;47.22
14966;BME280;7577;45.226;5.798;2023-07-29T07:49:30;98841.59;;;28.32;47.23
14966;BME280;7577;45.226;5.798;2023-07-29T07:52:01;98848.60;;;28.32;47.23
14966;BME280;7577;45.226;5.798;2023-07-29T07:54:30;98844.61;;;28.33;47.19
14966;BME280;7577;45.226;5.798;2023-07-29T07:57:01;98844.84;;;28.34;47.17
14966;BME280;7577;45.226;5.798;2023-07-29T07:59:31;98846.00;;;28.33;47.22
14966;BME280;7577;45.226;5.798;2023-07-29T08:02:01;98841.02;;;28.33;47.19
14966;BME280;7577;45.226;5.798;2023-07-29T08:04:31;98845.22;;;28.33;47.25
14966;BME280;7577;45.226;5.798;2023-07-29T08:07:01;98846.41;;;28.32;47.25
14966;BME280;7577;45.226;5.798;2023-07-29T08:09:32;98843.61;;;28.32;47.25
14966;BME280;7577;45.226;5.798;2023-07-29T08:14:40;98845.42;;;28.34;47.25
14966;BME280;7577;45.226;5.798;2023-07-29T08:17:10;98847.81;;;28.32;47.23
14966;BME280;7577;45.226;5.798;2023-07-29T08:19:40;98845.59;;;28.31;47.24
14966;BME280;7577;45.226;5.798;2023-07-29T08:22:10;98843.99;;;28.30;47.21
14966;BME280;7577;45.226;5.798;2023-07-29T08:24:40;98843.37;;;28.31;47.21
14966;BME280;7577;45.226;5.798;2023-07-29T08:29:51;98842.42;;;28.33;47.23
14966;BME280;7577;45.226;5.798;2023-07-29T08:32:21;98840.81;;;28.32;47.21
14966;BME280;7577;45.226;5.798;2023-07-29T08:34:51;98837.57;;;28.30;47.20
14966;BME280;7577;45.226;5.798;2023-07-29T08:37:21;98836.61;;;28.32;47.20
14966;BME280;7577;45.226;5.798;2023-07-29T08:39:51;98839.99;;;28.31;47.19
14966;BME280;7577;45.226;5.798;2023-07-29T08:42:24;98843.81;;;28.33;47.20
14966;BME280;7577;45.226;5.798;2023-07-29T08:44:56;98833.02;;;28.35;47.17
14966;BME280;7577;45.226;5.798;2023-07-29T08:47:26;98835.23;;;28.35;47.16
14966;BME280;7577;45.226;5.798;2023-07-29T08:49:57;98834.86;;;28.37;47.13
14966;BME280;7577;45.226;5.798;2023-07-29T08:52:30;98828.44;;;28.36;47.12
14966;BME280;7577;45.226;5.798;2023-07-29T08:55:01;98824.44;;;28.37;47.13
14966;BME280;7577;45.226;5.798;2023-07-29T08:57:32;98831.53;;;28.41;47.07
14966;BME280;7577;45.226;5.798;2023-07-29T09:00:03;98826.27;;;28.39;47.06
14966;BME280;7577;45.226;5.798;2023-07-29T09:02:33;98823.33;;;28.42;47.07
14966;BME280;7577;45.226;5.798;2023-07-29T09:07:42;98818.74;;;28.43;47.06
14966;BME280;7577;45.226;5.798;2023-07-29T09:10:14;98817.72;;;28.42;47.06
14966;BME280;7577;45.226;5.798;2023-07-29T09:12:45;98816.91;;;28.41;47.06
14966;BME280;7577;45.226;5.798;2023-07-29T09:15:26;98814.72;;;28.41;47.07
14966;BME280;7577;45.226;5.798;2023-07-29T09:20:35;98825.75;;;28.43;47.08
14966;BME280;7577;45.226;5.798;2023-07-29T09:23:07;98822.51;;;28.41;47.06
14966;BME280;7577;45.226;5.798;2023-07-29T09:25:39;98821.11;;;28.41;47.03
14966;BME280;7577;45.226;5.798;2023-07-29T09:28:10;98822.33;;;28.44;47.01
14966;BME280;7577;45.226;5.798;2023-07-29T09:30:44;98815.56;;;28.45;46.99
14966;BME280;7577;45.226;5.798;2023-07-29T09:33:14;98814.73;;;28.44;46.98
14966;BME280;7577;45.226;5.798;2023-07-29T09:35:45;98811.13;;;28.44;46.96
14966;BME280;7577;45.226;5.798;2023-07-29T09:38:16;98807.94;;;28.45;46.94
14966;BME280;7577;45.226;5.798;2023-07-29T09:40:47;98790.92;;;28.44;46.93
14966;BME280;7577;45.226;5.798;2023-07-29T09:43:18;98794.74;;;28.46;46.93
14966;BME280;7577;45.226;5.798;2023-07-29T09:45:48;98790.54;;;28.46;46.98
14966;BME280;7577;45.226;5.798;2023-07-29T09:48:20;98788.76;;;28.47;46.96
14966;BME280;7577;45.226;5.798;2023-07-29T09:50:51;98787.94;;;28.47;46.96
14966;BME280;7577;45.226;5.798;2023-07-29T09:53:22;98784.55;;;28.47;46.96
14966;BME280;7577;45.226;5.798;2023-07-29T09:55:53;98791.56;;;28.47;46.95
14966;BME280;7577;45.226;5.798;2023-07-29T09:58:27;98785.55;;;28.49;46.93
14966;BME280;7577;45.226;5.798;2023-07-29T10:00:57;98787.17;;;28.50;46.89
14966;BME280;7577;45.226;5.798;2023-07-29T10:03:28;98788.98;;;28.52;46.87
14966;BME280;7577;45.226;5.798;2023-07-29T10:06:02;98786.18;;;28.52;46.86
14966;BME280;7577;45.226;5.798;2023-07-29T10:08:32;98789.59;;;28.51;46.83
14966;BME280;7577;45.226;5.798;2023-07-29T10:11:05;98785.22;;;28.54;46.80
14966;BME280;7577;45.226;5.798;2023-07-29T10:13:36;98771.20;;;28.54;46.73
14966;BME280;7577;45.226;5.798;2023-07-29T10:16:07;98767.20;;;28.55;46.71
14966;BME280;7577;45.226;5.798;2023-07-29T10:18:39;98767.41;;;28.56;46.68
14966;BME280;7577;45.226;5.798;2023-07-29T10:23:51;98750.02;;;28.60;46.61
14966;BME280;7577;45.226;5.798;2023-07-29T10:26:23;98751.60;;;28.57;46.64
14966;BME280;7577;45.226;5.798;2023-07-29T10:28:55;98757.02;;;28.60;46.59
14966;BME280;7577;45.226;5.798;2023-07-29T10:31:29;98747.02;;;28.59;46.58
14966;BME280;7577;45.226;5.798;2023-07-29T10:33:59;98746.63;;;28.60;46.55
14966;BME280;7577;45.226;5.798;2023-07-29T10:39:08;98738.24;;;28.64;46.48
14966;BME280;7577;45.226;5.798;2023-07-29T10:41:56;98741.81;;;28.61;46.50
14966;BME280;7577;45.226;5.798;2023-07-29T10:47:29;98731.03;;;28.63;46.55
14966;BME280;7577;45.226;5.798;2023-07-29T10:50:01;98728.63;;;28.65;46.48
14966;BME280;7577;45.226;5.798;2023-07-29T10:52:42;98722.23;;;28.64;46.50
14966;BME280;7577;45.226;5.798;2023-07-29T10:55:29;98721.42;;;28.64;46.50
14966;BME280;7577;45.226;5.798;2023-07-29T10:58:12;98725.42;;;28.63;46.51
14966;BME280;7577;45.226;5.798;2023-07-29T11:00:44;98723.02;;;28.65;46.50
14966;BME280;7577;45.226;5.798;2023-07-29T11:03:15;98714.61;;;28.65;46.49
14966;BME280;7577;45.226;5.798;2023-07-29T11:05:53;98717.03;;;28.66;46.46
14966;BME280;7577;45.226;5.798;2023-07-29T11:08:27;98717.62;;;28.66;46.45
14966;BME280;7577;45.226;5.798;2023-07-29T11:11:05;98717.03;;;28.66;46.40
14966;BME280;7577;45.226;5.798;2023-07-29T11:13:37;98716.45;;;28.67;46.43
14966;BME280;7577;45.226;5.798;2023-07-29T11:18:47;98707.23;;;28.70;46.41
14966;BME280;7577;45.226;5.798;2023-07-29T11:21:18;98713.23;;;28.68;46.37
14966;BME280;7577;45.226;5.798;2023-07-29T11:26:28;98703.84;;;28.70;46.37
14966;BME280;7577;45.226;5.798;2023-07-29T11:28:58;98702.63;;;28.68;46.36
14966;BME280;7577;45.226;5.798;2023-07-29T11:31:41;98698.63;;;28.69;46.34
14966;BME280;7577;45.226;5.798;2023-07-29T11:34:12;98702.63;;;28.68;46.34
14966;BME280;7577;45.226;5.798;2023-07-29T11:36:46;98707.04;;;28.69;46.33
14966;BME280;7577;45.226;5.798;2023-07-29T11:39:16;98701.43;;;28.69;46.30
14966;BME280;7577;45.226;5.798;2023-07-29T11:41:47;98693.61;;;28.68;46.32
14966;BME280;7577;45.226;5.798;2023-07-29T11:44:18;98683.39;;;28.66;46.30
14966;BME280;7577;45.226;5.798;2023-07-29T11:46:48;98692.20;;;28.68;46.30
14966;BME280;7577;45.226;5.798;2023-07-29T11:49:18;98687.22;;;28.68;46.31
14966;BME280;7577;45.226;5.798;2023-07-29T11:51:48;98688.61;;;28.68;46.29
14966;BME280;7577;45.226;5.798;2023-07-29T11:54:18;98687.02;;;28.67;46.30
14966;BME280;7577;45.226;5.798;2023-07-29T11:56:51;98685.81;;;28.68;46.30
14966;BME280;7577;45.226;5.798;2023-07-29T11:59:22;98693.02;;;28.69;46.27
14966;BME280;7577;45.226;5.798;2023-07-29T12:01:54;98684.03;;;28.69;46.27
14966;BME280;7577;45.226;5.798;2023-07-29T12:04:24;98679.82;;;28.69;46.25
14966;BME280;7577;45.226;5.798;2023-07-29T12:06:54;98681.03;;;28.72;46.25
14966;BME280;7577;45.226;5.798;2023-07-29T12:09:26;98681.23;;;28.73;46.23
14966;BME280;7577;45.226;5.798;2023-07-29T12:11:57;98681.44;;;28.74;46.21
14966;BME280;7577;45.226;5.798;2023-07-29T12:14:29;98688.45;;;28.74;46.18
14966;BME280;7577;45.226;5.798;2023-07-29T12:17:02;98683.85;;;28.75;46.15
14966;BME280;7577;45.226;5.798;2023-07-29T12:19:37;98684.25;;;28.77;46.21
14966;BME280;7577;45.226;5.798;2023-07-29T12:22:08;98684.25;;;28.77;46.21
14966;BME280;7577;45.226;5.798;2023-07-29T12:24:40;98689.66;;;28.76;46.15
14966;BME280;7577;45.226;5.798;2023-07-29T12:29:52;98688.30;;;28.80;46.16
14966;BME280;7577;45.226;5.798;2023-07-29T12:35:03;98689.09;;;28.80;46.14
14966;BME280;7577;45.226;5.798;2023-07-29T12:37:35;98686.91;;;28.80;46.16
14966;BME280;7577;45.226;5.798;2023-07-29T12:40:08;98676.91;;;28.82;46.16
14966;BME280;7577;45.226;5.798;2023-07-29T12:42:38;98676.48;;;28.84;46.12
14966;BME280;7577;45.226;5.798;2023-07-29T12:45:10;98679.13;;;28.86;46.08
14966;BME280;7577;45.226;5.798;2023-07-29T12:47:40;98671.12;;;28.88;46.06
14966;BME280;7577;45.226;5.798;2023-07-29T12:50:11;98666.91;;;28.88;46.04
14966;BME280;7577;45.226;5.798;2023-07-29T12:52:41;98676.54;;;28.91;46.02
14966;BME280;7577;45.226;5.798;2023-07-29T12:55:11;98664.73;;;28.91;46.00
14966;BME280;7577;45.226;5.798;2023-07-29T12:57:43;98668.75;;;28.94;45.97
14966;BME280;7577;45.226;5.798;2023-07-29T13:00:15;98658.32;;;28.94;45.98
14966;BME280;7577;45.226;5.798;2023-07-29T13:02:45;98657.55;;;28.97;45.91
14966;BME280;7577;45.226;5.798;2023-07-29T13:05:15;98656.80;;;29.00;45.86
14966;BME280;7577;45.226;5.798;2023-07-29T13:07:45;98643.80;;;29.02;45.84
14966;BME280;7577;45.226;5.798;2023-07-29T13:10:15;98653.42;;;29.04;45.81
14966;BME280;7577;45.226;5.798;2023-07-29T13:12:46;98646.80;;;29.06;45.77
14966;BME280;7577;45.226;5.798;2023-07-29T13:15:17;98644.00;;;29.06;45.74
14966;BME280;7577;45.226;5.798;2023-07-29T13:17:47;98646.61;;;29.09;45.72
14966;BME280;7577;45.226;5.798;2023-07-29T13:20:18;98647.04;;;29.11;45.70
14966;BME280;7577;45.226;5.798;2023-07-29T13:22:48;98643.42;;;29.14;45.63
14966;BME280;7577;45.226;5.798;2023-07-29T13:27:56;98630.61;;;29.16;45.61
14966;BME280;7577;45.226;5.798;2023-07-29T13:30:27;98637.03;;;29.13;45.61
14966;BME280;7577;45.226;5.798;2023-07-29T13:32:57;98654.25;;;29.12;45.67
14966;BME280;7577;45.226;5.798;2023-07-29T13:35:27;98647.83;;;29.11;45.70
14966;BME280;7577;45.226;5.798;2023-07-29T13:37:57;98651.02;;;29.10;45.77
14966;BME280;7577;45.226;5.798;2023-07-29T13:40:27;98643.22;;;29.09;45.77
14966;BME280;7577;45.226;5.798;2023-07-29T13:42:57;98632.78;;;29.10;45.81
14966;BME280;7577;45.226;5.798;2023-07-29T13:48:06;98642.41;;;29.12;45.82
14966;BME280;7577;45.226;5.798;2023-07-29T13:50:36;98644.23;;;29.11;45.81
14966;BME280;7577;45.226;5.798;2023-07-29T13:53:06;98642.64;;;29.13;45.86
14966;BME280;7577;45.226;5.798;2023-07-29T13:55:36;98641.63;;;29.15;45.79
14966;BME280;7577;45.226;5.798;2023-07-29T13:58:06;98635.05;;;29.17;45.82
14966;BME280;7577;45.226;5.798;2023-07-29T14:00:36;98639.26;;;29.21;45.87
14966;BME280;7577;45.226;5.798;2023-07-29T14:03:06;98647.68;;;29.24;45.89
14966;BME280;7577;45.226;5.798;2023-07-29T14:05:36;98642.10;;;29.28;45.85
14966;BME280;7577;45.226;5.798;2023-07-29T14:08:06;98629.87;;;29.33;45.75
14966;BME280;7577;45.226;5.798;2023-07-29T14:10:36;98626.48;;;29.37;45.71
14966;BME280;7577;45.226;5.798;2023-07-29T14:13:06;98635.72;;;29.41;45.69
14966;BME280;7577;45.226;5.798;2023-07-29T14:15:36;98632.91;;;29.45;45.65
14966;BME280;7577;45.226;5.798;2023-07-29T14:20:43;98633.14;;;29.53;45.53
14966;BME280;7577;45.226;5.798;2023-07-29T14:23:13;98633.14;;;29.53;45.46
14966;BME280;7577;45.226;5.798;2023-07-29T14:25:43;98637.97;;;29.52;45.40
14966;BME280;7577;45.226;5.798;2023-07-29T14:28:15;98634.16;;;29.51;45.40
14966;BME280;7577;45.226;5.798;2023-07-29T14:30:45;98638.17;;;29.50;45.43
14966;BME280;7577;45.226;5.798;2023-07-29T14:33:15;98635.95;;;29.46;45.55
14966;BME280;7577;45.226;5.798;2023-07-29T14:35:45;98639.93;;;29.45;45.58
14966;BME280;7577;45.226;5.798;2023-07-29T14:38:15;98642.34;;;29.46;45.64